sensor_id;sensor_type;location;lat;lon;timestamp;temperature;humidity
41469;DHT22;27206;47.032;15.484;2022-10-16T00:01:59;10.50;1.00
41469;DHT22;27206;47.032;15.484;2022-10-16T00:04:25;10.50;1.00
41469;DHT22;27206;47.032;15.484;2022-10-16T00:06:50;10.40;1.00
41469;DHT22;27206;47.032;15.484;2022-10-16T00:09:16;10.40;1.00
41469;DHT22;27206;47.032;15.484;2022-10-16T00:11:41;10.50;1.00
41469;DHT22;27206;47.032;15.484;2022-10-16T00:14:09;10.60;1.00
41469;DHT22;27206;47.032;15.484;2022-10-16T00:16:35;10.60;1.00
41469;DHT22;27206;47.032;15.484;2022-10-16T00:19:00;10.60;1.00
41469;DHT22;27206;47.032;15.484;2022-10-16T00:21:27;10.60;8.00
41469;DHT22;27206;47.032;15.484;2022-10-16T00:23:53;10.60;9.90
41469;DHT22;27206;47.032;15.484;2022-10-16T00:26:19;10.50;8.00
41469;DHT22;27206;47.032;15.484;2022-10-16T00:28:46;10.60;6.70
41469;DHT22;27206;47.032;15.484;2022-10-16T00:31:11;10.60;1.00
41469;DHT22;27206;47.032;15.484;2022-10-16T00:33:38;10.60;1.00
41469;DHT22;27206;47.032;15.484;2022-10-16T00:36:04;10.60;1.00
41469;DHT22;27206;47.032;15.484;2022-10-16T00:38:30;10.60;1.00
41469;DHT22;27206;47.032;15.484;2022-10-16T00:40:56;10.60;1.00
41469;DHT22;27206;47.032;15.484;2022-10-16T00:46:03;10.60;1.00
41469;DHT22;27206;47.032;15.484;2022-10-16T00:48:29;10.60;1.00
41469;DHT22;27206;47.032;15.484;2022-10-16T00:50:55;10.70;1.00
41469;DHT22;27206;47.032;15.484;2022-10-16T00:53:22;10.70;1.00
41469;DHT22;27206;47.032;15.484;2022-10-16T00:55:48;10.70;1.00
41469;DHT22;27206;47.032;15.484;2022-10-16T00:58:14;10.70;1.00
41469;DHT22;27206;47.032;15.484;2022-10-16T01:00:39;10.70;1.00
41469;DHT22;27206;47.032;15.484;2022-10-16T01:03:21;10.60;1.00
41469;DHT22;27206;47.032;15.484;2022-10-16T01:05:49;10.70;1.00
41469;DHT22;27206;47.032;15.484;2022-10-16T01:08:21;10.60;1.00
41469;DHT22;27206;47.032;15.484;2022-10-16T01:13:17;10.70;1.00
41469;DHT22;27206;47.032;15.484;2022-10-16T01:16:28;10.70;1.00
41469;DHT22;27206;47.032;15.484;2022-10-16T01:18:37;10.70;1.00
41469;DHT22;27206;47.032;15.484;2022-10-16T01:21:12;10.70;1.00
41469;DHT22;27206;47.032;15.484;2022-10-16T01:29:03;10.60;1.00
41469;DHT22;27206;47.032;15.484;2022-10-16T01:31:32;10.60;1.00
41469;DHT22;27206;47.032;15.484;2022-10-16T01:34:00;10.60;1.00
41469;DHT22;27206;47.032;15.484;2022-10-16T01:36:37;10.60;1.00
41469;DHT22;27206;47.032;15.484;2022-10-16T01:39:04;10.60;1.00
41469;DHT22;27206;47.032;15.484;2022-10-16T01:41:35;10.50;1.00
41469;DHT22;27206;47.032;15.484;2022-10-16T01:46:28;10.50;1.00
41469;DHT22;27206;47.032;15.484;2022-10-16T01:48:56;10.40;1.00
41469;DHT22;27206;47.032;15.484;2022-10-16T01:51:22;10.40;1.00
41469;DHT22;27206;47.032;15.484;2022-10-16T01:53:49;10.40;1.00
41469;DHT22;27206;47.032;15.484;2022-10-16T01:56:17;10.40;1.00
41469;DHT22;27206;47.032;15.484;2022-10-16T01:58:47;10.40;1.00
41469;DHT22;27206;47.032;15.484;2022-10-16T02:01:14;10.30;1.00
41469;DHT22;27206;47.032;15.484;2022-10-16T02:03:40;10.30;1.00
41469;DHT22;27206;47.032;15.484;2022-10-16T02:06:07;10.30;1.00
41469;DHT22;27206;47.032;15.484;2022-10-16T02:08:33;10.30;1.00
41469;DHT22;27206;47.032;15.484;2022-10-16T02:10:59;10.50;1.00
41469;DHT22;27206;47.032;15.484;2022-10-16T02:15:50;10.50;1.00
41469;DHT22;27206;47.032;15.484;2022-10-16T02:18:16;10.50;1.00
41469;DHT22;27206;47.032;15.484;2022-10-16T02:20:52;10.60;1.00
41469;DHT22;27206;47.032;15.484;2022-10-16T02:23:20;10.50;1.00
41469;DHT22;27206;47.032;15.484;2022-10-16T02:25:49;10.40;1.00
41469;DHT22;27206;47.032;15.484;2022-10-16T02:28:16;10.50;1.00
41469;DHT22;27206;47.032;15.484;2022-10-16T02:30:44;10.60;1.00
41469;DHT22;27206;47.032;15.484;2022-10-16T02:33:11;10.60;1.00
41469;DHT22;27206;47.032;15.484;2022-10-16T02:35:38;10.50;1.00
41469;DHT22;27206;47.032;15.484;2022-10-16T02:38:05;10.50;1.00
41469;DHT22;27206;47.032;15.484;2022-10-16T02:40:31;10.60;1.00
41469;DHT22;27206;47.032;15.484;2022-10-16T02:42:57;10.40;1.00
41469;DHT22;27206;47.032;15.484;2022-10-16T02:45:22;10.50;1.00
41469;DHT22;27206;47.032;15.484;2022-10-16T02:47:48;10.50;10.40
41469;DHT22;27206;47.032;15.484;2022-10-16T02:50:14;10.50;21.00
41469;DHT22;27206;47.032;15.484;2022-10-16T02:52:40;10.50;26.00
41469;DHT22;27206;47.032;15.484;2022-10-16T02:55:05;10.60;29.00
41469;DHT22;27206;47.032;15.484;2022-10-16T02:57:31;10.50;35.00
41469;DHT22;27206;47.032;15.484;2022-10-16T02:59:57;10.50;44.10
41469;DHT22;27206;47.032;15.484;2022-10-16T03:02:22;10.50;57.10
41469;DHT22;27206;47.032;15.484;2022-10-16T03:04:48;10.50;60.10
41469;DHT22;27206;47.032;15.484;2022-10-16T03:07:13;10.40;76.80
41469;DHT22;27206;47.032;15.484;2022-10-16T03:09:39;10.40;91.20
41469;DHT22;27206;47.032;15.484;2022-10-16T03:12:04;10.40;92.90
41469;DHT22;27206;47.032;15.484;2022-10-16T03:14:30;10.50;93.70
41469;DHT22;27206;47.032;15.484;2022-10-16T03:16:55;10.50;91.40
41469;DHT22;27206;47.032;15.484;2022-10-16T03:19:21;10.50;90.30
41469;DHT22;27206;47.032;15.484;2022-10-16T03:21:46;10.60;91.20
41469;DHT22;27206;47.032;15.484;2022-10-16T03:24:12;10.60;92.20
41469;DHT22;27206;47.032;15.484;2022-10-16T03:26:37;10.60;95.40
41469;DHT22;27206;47.032;15.484;2022-10-16T03:29:03;10.70;97.20
41469;DHT22;27206;47.032;15.484;2022-10-16T03:31:29;10.70;99.30
41469;DHT22;27206;47.032;15.484;2022-10-16T03:33:54;10.70;99.90
41469;DHT22;27206;47.032;15.484;2022-10-16T03:36:20;10.70;99.90
41469;DHT22;27206;47.032;15.484;2022-10-16T03:38:45;10.70;99.90
41469;DHT22;27206;47.032;15.484;2022-10-16T03:41:11;10.70;99.90
41469;DHT22;27206;47.032;15.484;2022-10-16T03:43:36;10.70;99.90
41469;DHT22;27206;47.032;15.484;2022-10-16T03:46:02;10.70;99.90
41469;DHT22;27206;47.032;15.484;2022-10-16T03:48:28;10.60;99.90
41469;DHT22;27206;47.032;15.484;2022-10-16T03:50:54;10.60;99.90
41469;DHT22;27206;47.032;15.484;2022-10-16T03:53:20;10.60;99.90
41469;DHT22;27206;47.032;15.484;2022-10-16T03:55:45;10.50;99.90
41469;DHT22;27206;47.032;15.484;2022-10-16T03:58:11;10.50;99.90
41469;DHT22;27206;47.032;15.484;2022-10-16T04:00:40;10.50;99.90
41469;DHT22;27206;47.032;15.484;2022-10-16T04:03:06;10.50;99.90
41469;DHT22;27206;47.032;15.484;2022-10-16T04:05:32;10.50;99.90
41469;DHT22;27206;47.032;15.484;2022-10-16T04:07:57;10.50;99.90
41469;DHT22;27206;47.032;15.484;2022-10-16T04:10:23;10.40;99.90
41469;DHT22;27206;47.032;15.484;2022-10-16T04:12:48;10.50;99.90
41469;DHT22;27206;47.032;15.484;2022-10-16T04:15:14;10.40;99.90
41469;DHT22;27206;47.032;15.484;2022-10-16T04:17:39;10.40;99.90
41469;DHT22;27206;47.032;15.484;2022-10-16T04:20:05;10.40;99.90
41469;DHT22;27206;47.032;15.484;2022-10-16T04:22:31;10.30;99.90
41469;DHT22;27206;47.032;15.484;2022-10-16T04:24:56;10.40;99.90
41469;DHT22;27206;47.032;15.484;2022-10-16T04:27:21;10.40;99.90
41469;DHT22;27206;47.032;15.484;2022-10-16T04:29:47;10.40;99.90
41469;DHT22;27206;47.032;15.484;2022-10-16T04:32:12;10.40;99.90
41469;DHT22;27206;47.032;15.484;2022-10-16T04:34:39;10.40;90.70
41469;DHT22;27206;47.032;15.484;2022-10-16T04:37:06;10.40;72.60
41469;DHT22;27206;47.032;15.484;2022-10-16T04:39:32;10.40;61.40
41469;DHT22;27206;47.032;15.484;2022-10-16T04:41:58;10.30;54.50
41469;DHT22;27206;47.032;15.484;2022-10-16T04:44:23;10.30;48.20
41469;DHT22;27206;47.032;15.484;2022-10-16T04:46:52;10.30;47.00
41469;DHT22;27206;47.032;15.484;2022-10-16T04:49:17;10.30;46.40
41469;DHT22;27206;47.032;15.484;2022-10-16T04:51:43;10.30;43.60
41469;DHT22;27206;47.032;15.484;2022-10-16T04:54:09;10.30;41.50
41469;DHT22;27206;47.032;15.484;2022-10-16T04:56:34;10.30;41.50
41469;DHT22;27206;47.032;15.484;2022-10-16T04:59:05;10.30;37.50
41469;DHT22;27206;47.032;15.484;2022-10-16T05:01:31;10.30;32.80
41469;DHT22;27206;47.032;15.484;2022-10-16T05:03:56;10.20;27.30
41469;DHT22;27206;47.032;15.484;2022-10-16T05:06:22;10.20;32.70
41469;DHT22;27206;47.032;15.484;2022-10-16T05:08:47;10.20;32.10
41469;DHT22;27206;47.032;15.484;2022-10-16T05:11:12;10.20;31.60
41469;DHT22;27206;47.032;15.484;2022-10-16T05:13:40;10.20;33.40
41469;DHT22;27206;47.032;15.484;2022-10-16T05:16:06;10.10;30.00
41469;DHT22;27206;47.032;15.484;2022-10-16T05:18:31;10.10;38.20
41469;DHT22;27206;47.032;15.484;2022-10-16T05:20:57;10.00;49.70
41469;DHT22;27206;47.032;15.484;2022-10-16T05:23:23;10.10;61.50
41469;DHT22;27206;47.032;15.484;2022-10-16T05:25:52;10.10;72.10
41469;DHT22;27206;47.032;15.484;2022-10-16T05:28:17;10.20;73.90
41469;DHT22;27206;47.032;15.484;2022-10-16T05:30:43;10.20;87.20
41469;DHT22;27206;47.032;15.484;2022-10-16T05:33:08;10.20;85.20
41469;DHT22;27206;47.032;15.484;2022-10-16T05:35:34;10.30;94.60
41469;DHT22;27206;47.032;15.484;2022-10-16T05:37:59;10.30;98.00
41469;DHT22;27206;47.032;15.484;2022-10-16T05:40:25;10.40;98.80
41469;DHT22;27206;47.032;15.484;2022-10-16T05:42:54;10.40;99.90
41469;DHT22;27206;47.032;15.484;2022-10-16T05:45:19;10.40;98.80
41469;DHT22;27206;47.032;15.484;2022-10-16T05:47:45;10.50;99.90
41469;DHT22;27206;47.032;15.484;2022-10-16T05:50:10;10.40;99.30
41469;DHT22;27206;47.032;15.484;2022-10-16T05:52:36;10.50;99.90
41469;DHT22;27206;47.032;15.484;2022-10-16T05:55:01;10.50;99.90
41469;DHT22;27206;47.032;15.484;2022-10-16T05:57:27;10.50;99.90
41469;DHT22;27206;47.032;15.484;2022-10-16T05:59:52;10.50;99.90
41469;DHT22;27206;47.032;15.484;2022-10-16T06:02:18;10.50;99.90
41469;DHT22;27206;47.032;15.484;2022-10-16T06:04:44;10.40;99.90
41469;DHT22;27206;47.032;15.484;2022-10-16T06:07:09;10.50;99.90
41469;DHT22;27206;47.032;15.484;2022-10-16T06:09:35;10.50;99.90
41469;DHT22;27206;47.032;15.484;2022-10-16T06:12:00;10.50;99.90
41469;DHT22;27206;47.032;15.484;2022-10-16T06:14:26;10.50;99.90
41469;DHT22;27206;47.032;15.484;2022-10-16T06:16:51;10.50;99.90
41469;DHT22;27206;47.032;15.484;2022-10-16T06:19:17;10.50;99.90
41469;DHT22;27206;47.032;15.484;2022-10-16T06:21:43;10.50;99.90
41469;DHT22;27206;47.032;15.484;2022-10-16T06:24:09;10.50;99.90
41469;DHT22;27206;47.032;15.484;2022-10-16T06:26:35;10.60;99.90
41469;DHT22;27206;47.032;15.484;2022-10-16T06:29:00;10.70;99.90
41469;DHT22;27206;47.032;15.484;2022-10-16T06:31:26;10.70;99.90
41469;DHT22;27206;47.032;15.484;2022-10-16T06:33:54;10.60;99.90
41469;DHT22;27206;47.032;15.484;2022-10-16T06:36:20;10.70;99.90
41469;DHT22;27206;47.032;15.484;2022-10-16T06:38:46;10.60;99.90
41469;DHT22;27206;47.032;15.484;2022-10-16T06:41:12;10.60;99.90
41469;DHT22;27206;47.032;15.484;2022-10-16T06:43:38;10.60;99.90
41469;DHT22;27206;47.032;15.484;2022-10-16T06:46:05;10.60;99.90
41469;DHT22;27206;47.032;15.484;2022-10-16T06:48:30;10.60;99.90
41469;DHT22;27206;47.032;15.484;2022-10-16T06:50:57;10.70;99.90
41469;DHT22;27206;47.032;15.484;2022-10-16T06:53:23;10.80;99.90
41469;DHT22;27206;47.032;15.484;2022-10-16T06:55:48;10.80;99.30
41469;DHT22;27206;47.032;15.484;2022-10-16T06:58:14;10.80;95.20
41469;DHT22;27206;47.032;15.484;2022-10-16T07:00:39;10.90;90.80
41469;DHT22;27206;47.032;15.484;2022-10-16T07:03:05;11.00;75.10
41469;DHT22;27206;47.032;15.484;2022-10-16T07:05:30;11.00;53.70
41469;DHT22;27206;47.032;15.484;2022-10-16T07:07:56;11.00;37.30
41469;DHT22;27206;47.032;15.484;2022-10-16T07:10:21;11.00;43.10
41469;DHT22;27206;47.032;15.484;2022-10-16T07:12:49;11.10;52.80
41469;DHT22;27206;47.032;15.484;2022-10-16T07:15:15;11.30;83.80
41469;DHT22;27206;47.032;15.484;2022-10-16T07:17:40;11.40;66.70
41469;DHT22;27206;47.032;15.484;2022-10-16T07:20:06;11.50;69.70
41469;DHT22;27206;47.032;15.484;2022-10-16T07:22:31;11.60;54.50
41469;DHT22;27206;47.032;15.484;2022-10-16T07:24:58;11.80;55.20
41469;DHT22;27206;47.032;15.484;2022-10-16T07:27:23;11.80;14.00
41469;DHT22;27206;47.032;15.484;2022-10-16T07:29:49;11.60;1.00
41469;DHT22;27206;47.032;15.484;2022-10-16T07:32:15;11.70;1.00
41469;DHT22;27206;47.032;15.484;2022-10-16T07:34:40;11.70;1.00
41469;DHT22;27206;47.032;15.484;2022-10-16T07:37:06;11.80;1.00
41469;DHT22;27206;47.032;15.484;2022-10-16T07:39:31;12.00;1.00
41469;DHT22;27206;47.032;15.484;2022-10-16T07:41:57;12.00;1.00
41469;DHT22;27206;47.032;15.484;2022-10-16T07:44:22;12.00;1.00
41469;DHT22;27206;47.032;15.484;2022-10-16T07:46:48;11.90;1.00
41469;DHT22;27206;47.032;15.484;2022-10-16T07:49:13;12.10;1.00
41469;DHT22;27206;47.032;15.484;2022-10-16T07:51:39;12.10;1.00
41469;DHT22;27206;47.032;15.484;2022-10-16T07:54:04;12.20;1.00
41469;DHT22;27206;47.032;15.484;2022-10-16T07:56:30;12.30;1.00
41469;DHT22;27206;47.032;15.484;2022-10-16T07:58:57;12.40;1.00
41469;DHT22;27206;47.032;15.484;2022-10-16T08:01:23;12.50;1.00
41469;DHT22;27206;47.032;15.484;2022-10-16T08:03:50;12.60;1.00
41469;DHT22;27206;47.032;15.484;2022-10-16T08:06:16;12.90;1.00
41469;DHT22;27206;47.032;15.484;2022-10-16T08:08:42;13.10;1.00
41469;DHT22;27206;47.032;15.484;2022-10-16T08:11:08;13.40;1.00
41469;DHT22;27206;47.032;15.484;2022-10-16T08:13:34;13.40;1.00
41469;DHT22;27206;47.032;15.484;2022-10-16T08:16:00;13.50;1.00
41469;DHT22;27206;47.032;15.484;2022-10-16T08:18:25;13.60;1.00
41469;DHT22;27206;47.032;15.484;2022-10-16T08:20:58;13.60;1.00
41469;DHT22;27206;47.032;15.484;2022-10-16T08:23:25;13.90;1.00
41469;DHT22;27206;47.032;15.484;2022-10-16T08:25:53;13.90;1.00
41469;DHT22;27206;47.032;15.484;2022-10-16T08:28:19;13.90;1.00
41469;DHT22;27206;47.032;15.484;2022-10-16T08:30:46;13.90;1.00
41469;DHT22;27206;47.032;15.484;2022-10-16T08:33:11;14.00;1.00
41469;DHT22;27206;47.032;15.484;2022-10-16T08:35:38;14.00;1.00
41469;DHT22;27206;47.032;15.484;2022-10-16T08:38:04;14.10;1.00
41469;DHT22;27206;47.032;15.484;2022-10-16T08:40:31;14.30;1.00
41469;DHT22;27206;47.032;15.484;2022-10-16T08:43:01;14.50;1.00
41469;DHT22;27206;47.032;15.484;2022-10-16T08:45:49;14.60;1.00
41469;DHT22;27206;47.032;15.484;2022-10-16T08:48:22;14.60;1.00
41469;DHT22;27206;47.032;15.484;2022-10-16T08:50:51;14.60;1.00
41469;DHT22;27206;47.032;15.484;2022-10-16T08:53:18;15.00;1.00
41469;DHT22;27206;47.032;15.484;2022-10-16T08:55:51;15.20;1.00
41469;DHT22;27206;47.032;15.484;2022-10-16T08:58:18;15.40;1.00
41469;DHT22;27206;47.032;15.484;2022-10-16T09:00:48;15.50;1.00
41469;DHT22;27206;47.032;15.484;2022-10-16T09:05:52;15.80;1.00
41469;DHT22;27206;47.032;15.484;2022-10-16T09:08:26;16.10;1.00
41469;DHT22;27206;47.032;15.484;2022-10-16T09:10:58;16.10;1.00
41469;DHT22;27206;47.032;15.484;2022-10-16T09:13:50;16.20;1.00
41469;DHT22;27206;47.032;15.484;2022-10-16T09:16:26;16.50;1.00
41469;DHT22;27206;47.032;15.484;2022-10-16T09:21:46;17.00;1.00
41469;DHT22;27206;47.032;15.484;2022-10-16T09:24:14;17.10;1.00
41469;DHT22;27206;47.032;15.484;2022-10-16T09:26:40;17.30;1.00
41469;DHT22;27206;47.032;15.484;2022-10-16T09:29:05;17.50;1.00
41469;DHT22;27206;47.032;15.484;2022-10-16T09:31:31;17.70;1.00
41469;DHT22;27206;47.032;15.484;2022-10-16T09:34:00;17.80;1.00
41469;DHT22;27206;47.032;15.484;2022-10-16T09:36:29;18.10;1.00
41469;DHT22;27206;47.032;15.484;2022-10-16T09:39:02;18.20;1.00
41469;DHT22;27206;47.032;15.484;2022-10-16T09:41:27;18.20;1.00
41469;DHT22;27206;47.032;15.484;2022-10-16T09:43:57;18.50;1.00
41469;DHT22;27206;47.032;15.484;2022-10-16T09:48:54;18.90;1.00
41469;DHT22;27206;47.032;15.484;2022-10-16T09:51:21;19.00;1.00
41469;DHT22;27206;47.032;15.484;2022-10-16T09:53:48;19.00;1.00
41469;DHT22;27206;47.032;15.484;2022-10-16T09:56:24;19.30;1.00
41469;DHT22;27206;47.032;15.484;2022-10-16T09:58:51;19.40;1.00
41469;DHT22;27206;47.032;15.484;2022-10-16T10:01:17;19.50;1.00
41469;DHT22;27206;47.032;15.484;2022-10-16T10:03:44;19.40;1.00
41469;DHT22;27206;47.032;15.484;2022-10-16T10:06:44;19.60;1.00
41469;DHT22;27206;47.032;15.484;2022-10-16T10:11:53;20.30;99.90
41469;DHT22;27206;47.032;15.484;2022-10-16T10:14:23;20.60;99.90
41469;DHT22;27206;47.032;15.484;2022-10-16T10:16:50;20.50;99.90
41469;DHT22;27206;47.032;15.484;2022-10-16T10:19:16;20.80;99.90
41469;DHT22;27206;47.032;15.484;2022-10-16T10:21:42;20.90;99.90
41469;DHT22;27206;47.032;15.484;2022-10-16T10:24:14;21.00;99.90
41469;DHT22;27206;47.032;15.484;2022-10-16T10:26:41;21.60;99.90
41469;DHT22;27206;47.032;15.484;2022-10-16T10:29:57;21.70;99.90
41469;DHT22;27206;47.032;15.484;2022-10-16T10:32:04;21.90;99.90
41469;DHT22;27206;47.032;15.484;2022-10-16T10:37:06;22.60;99.90
41469;DHT22;27206;47.032;15.484;2022-10-16T10:39:48;22.80;99.90
41469;DHT22;27206;47.032;15.484;2022-10-16T10:42:29;22.90;99.90
41469;DHT22;27206;47.032;15.484;2022-10-16T10:45:03;23.00;99.90
41469;DHT22;27206;47.032;15.484;2022-10-16T10:50:07;23.40;99.90
41469;DHT22;27206;47.032;15.484;2022-10-16T10:55:26;23.60;99.90
41469;DHT22;27206;47.032;15.484;2022-10-16T11:00:28;24.10;99.90
41469;DHT22;27206;47.032;15.484;2022-10-16T11:08:26;24.80;99.90
41469;DHT22;27206;47.032;15.484;2022-10-16T11:10:53;24.70;99.90
41469;DHT22;27206;47.032;15.484;2022-10-16T11:13:23;24.50;99.90
41469;DHT22;27206;47.032;15.484;2022-10-16T11:15:50;24.80;99.90
41469;DHT22;27206;47.032;15.484;2022-10-16T11:18:21;25.00;99.90
41469;DHT22;27206;47.032;15.484;2022-10-16T11:20:50;25.10;99.90
41469;DHT22;27206;47.032;15.484;2022-10-16T11:25:45;24.50;99.90
41469;DHT22;27206;47.032;15.484;2022-10-16T11:31:17;25.20;99.90
41469;DHT22;27206;47.032;15.484;2022-10-16T11:33:46;25.00;99.90
41469;DHT22;27206;47.032;15.484;2022-10-16T11:38:52;25.50;99.90
41469;DHT22;27206;47.032;15.484;2022-10-16T11:41:32;25.50;99.90
41469;DHT22;27206;47.032;15.484;2022-10-16T11:46:44;25.60;99.90
41469;DHT22;27206;47.032;15.484;2022-10-16T11:49:30;25.50;99.90
41469;DHT22;27206;47.032;15.484;2022-10-16T11:52:15;24.80;99.90
41469;DHT22;27206;47.032;15.484;2022-10-16T11:54:54;25.50;99.90
41469;DHT22;27206;47.032;15.484;2022-10-16T11:57:26;25.90;99.90
41469;DHT22;27206;47.032;15.484;2022-10-16T12:02:30;25.90;99.90
41469;DHT22;27206;47.032;15.484;2022-10-16T12:08:01;26.20;99.90
41469;DHT22;27206;47.032;15.484;2022-10-16T12:10:29;26.30;99.90
41469;DHT22;27206;47.032;15.484;2022-10-16T12:12:56;26.40;99.90
41469;DHT22;27206;47.032;15.484;2022-10-16T12:15:30;26.30;99.90
41469;DHT22;27206;47.032;15.484;2022-10-16T12:17:56;26.30;99.90
41469;DHT22;27206;47.032;15.484;2022-10-16T12:25:26;27.20;99.90
41469;DHT22;27206;47.032;15.484;2022-10-16T12:30:26;26.40;99.90
41469;DHT22;27206;47.032;15.484;2022-10-16T12:33:02;27.00;99.90
41469;DHT22;27206;47.032;15.484;2022-10-16T12:35:32;25.90;99.90
41469;DHT22;27206;47.032;15.484;2022-10-16T12:38:08;26.80;99.90
41469;DHT22;27206;47.032;15.484;2022-10-16T12:40:38;27.10;99.90
41469;DHT22;27206;47.032;15.484;2022-10-16T12:45:48;27.40;99.90
41469;DHT22;27206;47.032;15.484;2022-10-16T12:48:23;27.40;99.90
41469;DHT22;27206;47.032;15.484;2022-10-16T12:50:49;25.80;99.90
41469;DHT22;27206;47.032;15.484;2022-10-16T12:53:20;25.70;99.90
41469;DHT22;27206;47.032;15.484;2022-10-16T12:55:52;27.20;99.90
41469;DHT22;27206;47.032;15.484;2022-10-16T12:58:39;27.40;99.90
41469;DHT22;27206;47.032;15.484;2022-10-16T13:04:00;28.40;99.90
41469;DHT22;27206;47.032;15.484;2022-10-16T13:11:47;27.60;99.90
41469;DHT22;27206;47.032;15.484;2022-10-16T13:14:25;28.30;99.90
41469;DHT22;27206;47.032;15.484;2022-10-16T13:22:24;27.60;99.90
41469;DHT22;27206;47.032;15.484;2022-10-16T13:30:00;28.00;99.90
41469;DHT22;27206;47.032;15.484;2022-10-16T13:32:26;27.40;99.90
41469;DHT22;27206;47.032;15.484;2022-10-16T13:34:52;28.10;99.90
41469;DHT22;27206;47.032;15.484;2022-10-16T13:37:20;28.10;99.90
41469;DHT22;27206;47.032;15.484;2022-10-16T13:39:46;28.20;99.90
41469;DHT22;27206;47.032;15.484;2022-10-16T13:44:45;27.90;99.90
41469;DHT22;27206;47.032;15.484;2022-10-16T13:47:16;27.70;99.90
41469;DHT22;27206;47.032;15.484;2022-10-16T13:49:41;28.00;99.90
41469;DHT22;27206;47.032;15.484;2022-10-16T13:52:15;28.20;99.90
41469;DHT22;27206;47.032;15.484;2022-10-16T13:54:41;28.00;99.90
41469;DHT22;27206;47.032;15.484;2022-10-16T13:57:07;27.40;99.90
41469;DHT22;27206;47.032;15.484;2022-10-16T13:59:33;27.70;99.90
41469;DHT22;27206;47.032;15.484;2022-10-16T14:01:59;27.60;99.90
41469;DHT22;27206;47.032;15.484;2022-10-16T14:04:27;27.60;99.90
41469;DHT22;27206;47.032;15.484;2022-10-16T14:06:54;27.40;99.90
41469;DHT22;27206;47.032;15.484;2022-10-16T14:09:27;27.50;99.90
41469;DHT22;27206;47.032;15.484;2022-10-16T14:12:03;27.80;99.90
41469;DHT22;27206;47.032;15.484;2022-10-16T14:14:34;27.90;99.90
41469;DHT22;27206;47.032;15.484;2022-10-16T14:17:06;27.80;99.90
41469;DHT22;27206;47.032;15.484;2022-10-16T14:19:34;27.50;99.90
41469;DHT22;27206;47.032;15.484;2022-10-16T14:22:00;27.80;99.90
41469;DHT22;27206;47.032;15.484;2022-10-16T14:26:55;27.10;99.90
41469;DHT22;27206;47.032;15.484;2022-10-16T14:29:21;26.70;99.90
41469;DHT22;27206;47.032;15.484;2022-10-16T14:34:26;27.30;99.90
41469;DHT22;27206;47.032;15.484;2022-10-16T14:36:53;27.20;99.90
41469;DHT22;27206;47.032;15.484;2022-10-16T14:39:22;27.20;99.90
41469;DHT22;27206;47.032;15.484;2022-10-16T14:41:48;27.00;99.90
41469;DHT22;27206;47.032;15.484;2022-10-16T14:44:14;27.00;99.90
41469;DHT22;27206;47.032;15.484;2022-10-16T14:46:42;26.80;99.90
41469;DHT22;27206;47.032;15.484;2022-10-16T14:51:34;26.40;99.90
41469;DHT22;27206;47.032;15.484;2022-10-16T14:53:59;26.10;99.90
41469;DHT22;27206;47.032;15.484;2022-10-16T14:56:31;25.80;99.90
41469;DHT22;27206;47.032;15.484;2022-10-16T14:58:59;26.20;99.90
41469;DHT22;27206;47.032;15.484;2022-10-16T15:01:25;25.80;99.90
41469;DHT22;27206;47.032;15.484;2022-10-16T15:03:50;25.40;99.90
41469;DHT22;27206;47.032;15.484;2022-10-16T15:06:17;25.50;99.90
41469;DHT22;27206;47.032;15.484;2022-10-16T15:08:43;25.50;99.90
41469;DHT22;27206;47.032;15.484;2022-10-16T15:11:18;25.20;99.90
41469;DHT22;27206;47.032;15.484;2022-10-16T15:13:44;25.00;99.90
41469;DHT22;27206;47.032;15.484;2022-10-16T15:16:15;24.60;99.90
41469;DHT22;27206;47.032;15.484;2022-10-16T15:18:41;24.40;99.90
41469;DHT22;27206;47.032;15.484;2022-10-16T15:21:07;24.40;99.90
41469;DHT22;27206;47.032;15.484;2022-10-16T15:23:32;24.30;99.90
41469;DHT22;27206;47.032;15.484;2022-10-16T15:25:58;24.10;99.90
41469;DHT22;27206;47.032;15.484;2022-10-16T15:28:24;23.80;99.90
41469;DHT22;27206;47.032;15.484;2022-10-16T15:30:53;24.00;99.90
41469;DHT22;27206;47.032;15.484;2022-10-16T15:33:24;23.80;99.90
41469;DHT22;27206;47.032;15.484;2022-10-16T15:35:58;23.30;99.90
41469;DHT22;27206;47.032;15.484;2022-10-16T15:38:23;22.80;99.90
41469;DHT22;27206;47.032;15.484;2022-10-16T15:40:49;22.50;99.90
41469;DHT22;27206;47.032;15.484;2022-10-16T15:43:15;22.30;99.90
41469;DHT22;27206;47.032;15.484;2022-10-16T15:45:41;21.90;99.90
41469;DHT22;27206;47.032;15.484;2022-10-16T15:48:08;21.80;99.90
41469;DHT22;27206;47.032;15.484;2022-10-16T15:50:35;21.50;99.90
41469;DHT22;27206;47.032;15.484;2022-10-16T15:53:02;21.50;99.90
41469;DHT22;27206;47.032;15.484;2022-10-16T15:55:28;21.20;99.90
41469;DHT22;27206;47.032;15.484;2022-10-16T15:57:53;21.00;99.90
41469;DHT22;27206;47.032;15.484;2022-10-16T16:00:19;20.70;99.90
41469;DHT22;27206;47.032;15.484;2022-10-16T16:02:50;20.40;99.90
41469;DHT22;27206;47.032;15.484;2022-10-16T16:05:17;20.20;99.90
41469;DHT22;27206;47.032;15.484;2022-10-16T16:07:42;20.20;99.90
41469;DHT22;27206;47.032;15.484;2022-10-16T16:10:09;20.10;99.90
41469;DHT22;27206;47.032;15.484;2022-10-16T16:12:35;19.90;99.90
41469;DHT22;27206;47.032;15.484;2022-10-16T16:15:01;19.60;99.90
41469;DHT22;27206;47.032;15.484;2022-10-16T16:17:27;19.40;99.90
41469;DHT22;27206;47.032;15.484;2022-10-16T16:19:53;19.30;99.90
41469;DHT22;27206;47.032;15.484;2022-10-16T16:22:18;19.10;99.90
41469;DHT22;27206;47.032;15.484;2022-10-16T16:24:44;19.00;1.00
41469;DHT22;27206;47.032;15.484;2022-10-16T16:27:09;18.80;1.00
41469;DHT22;27206;47.032;15.484;2022-10-16T16:29:35;18.80;1.00
41469;DHT22;27206;47.032;15.484;2022-10-16T16:32:01;18.60;1.00
41469;DHT22;27206;47.032;15.484;2022-10-16T16:34:27;18.50;1.00
41469;DHT22;27206;47.032;15.484;2022-10-16T16:36:53;18.40;1.00
41469;DHT22;27206;47.032;15.484;2022-10-16T16:39:19;18.40;1.00
41469;DHT22;27206;47.032;15.484;2022-10-16T16:41:44;18.20;1.00
41469;DHT22;27206;47.032;15.484;2022-10-16T16:44:13;18.20;1.00
41469;DHT22;27206;47.032;15.484;2022-10-16T16:46:40;18.00;1.00
41469;DHT22;27206;47.032;15.484;2022-10-16T16:49:06;17.90;1.00
41469;DHT22;27206;47.032;15.484;2022-10-16T16:51:31;17.70;1.00
41469;DHT22;27206;47.032;15.484;2022-10-16T16:53:57;17.60;1.00
41469;DHT22;27206;47.032;15.484;2022-10-16T16:56:23;17.50;1.00
41469;DHT22;27206;47.032;15.484;2022-10-16T16:58:50;17.50;1.00
41469;DHT22;27206;47.032;15.484;2022-10-16T17:01:16;17.50;1.00
41469;DHT22;27206;47.032;15.484;2022-10-16T17:03:42;17.50;1.00